createdAt,value
2022-08-28T00:00:30.857Z,15.73
2022-08-28T00:02:58.924Z,15.72
2022-08-28T00:05:31.641Z,15.67
2022-08-28T00:08:00.368Z,15.65
2022-08-28T00:10:28.697Z,15.63
2022-08-28T00:12:57.469Z,15.63
2022-08-28T00:15:33.596Z,15.64
2022-08-28T00:18:03.697Z,15.61
2022-08-28T00:20:33.527Z,15.59
2022-08-28T00:23:01.686Z,15.56
2022-08-28T00:25:30.897Z,15.55
2022-08-28T00:28:08.585Z,15.54
2022-08-28T00:30:43.797Z,15.53
2022-08-28T00:33:18.138Z,15.53
2022-08-28T00:35:47.949Z,15.49
2022-08-28T00:38:19.255Z,15.48
2022-08-28T00:40:52.355Z,15.45
2022-08-28T00:43:33.917Z,15.43
2022-08-28T00:46:09.598Z,15.39
2022-08-28T00:48:38.076Z,15.40
2022-08-28T00:51:25.864Z,15.40
2022-08-28T00:53:58.821Z,15.40
2022-08-28T00:56:29.868Z,15.38
2022-08-28T00:59:03.582Z,15.36
2022-08-28T01:01:31.296Z,15.34
2022-08-28T01:03:58.850Z,15.29
2022-08-28T01:06:26.337Z,15.25
2022-08-28T01:08:54.462Z,15.21
2022-08-28T01:11:21.903Z,15.16
2022-08-28T01:13:51.194Z,15.13
2022-08-28T01:16:22.575Z,15.12
2022-08-28T01:18:55.251Z,15.08
2022-08-28T01:21:58.618Z,15.09
2022-08-28T01:24:27.356Z,15.04
2022-08-28T01:26:54.791Z,15.01
2022-08-28T01:29:24.278Z,14.98
2022-08-28T01:31:51.741Z,14.95
2022-08-28T01:34:19.203Z,14.90
2022-08-28T01:36:48.432Z,14.87
2022-08-28T01:39:22.260Z,14.83
2022-08-28T01:41:54.595Z,14.81
2022-08-28T01:44:26.286Z,14.77
2022-08-28T01:46:57.095Z,14.71
2022-08-28T01:49:29.218Z,14.69
2022-08-28T01:51:58.326Z,14.66
2022-08-28T01:54:28.722Z,14.65
2022-08-28T01:56:56.482Z,14.62
2022-08-28T01:59:24.008Z,14.60
2022-08-28T02:01:52.506Z,14.55
2022-08-28T02:04:19.991Z,14.51
2022-08-28T02:06:53.410Z,14.48
2022-08-28T02:09:20.883Z,14.45
2022-08-28T02:11:48.352Z,14.43
2022-08-28T02:14:16.572Z,14.42
2022-08-28T02:16:44.084Z,14.43
2022-08-28T02:19:12.147Z,14.42
2022-08-28T02:21:40.284Z,14.43
2022-08-28T02:24:08.664Z,14.43
2022-08-28T02:26:36.147Z,14.44
2022-08-28T02:29:04.818Z,14.45
2022-08-28T02:31:32.494Z,14.46
2022-08-28T02:34:01.009Z,14.48
2022-08-28T02:36:29.050Z,14.47
2022-08-28T02:38:57.907Z,14.47
2022-08-28T02:41:26.176Z,14.47
2022-08-28T02:43:54.514Z,14.48
2022-08-28T02:46:21.975Z,14.46
2022-08-28T02:48:50.431Z,14.45
2022-08-28T02:51:19.985Z,14.42
2022-08-28T02:53:47.758Z,14.39
2022-08-28T02:56:15.392Z,14.33
2022-08-28T02:58:44.570Z,14.29
2022-08-28T03:01:14.724Z,14.26
2022-08-28T03:03:43.185Z,14.22
2022-08-28T03:06:12.881Z,14.18
2022-08-28T03:08:43.580Z,14.15
2022-08-28T03:11:12.029Z,14.14
2022-08-28T03:13:39.570Z,14.13
2022-08-28T03:16:07.410Z,14.11
2022-08-28T03:18:35.116Z,14.09
2022-08-28T03:21:03.213Z,14.08
2022-08-28T03:23:31.955Z,14.04
2022-08-28T03:26:04.888Z,14.02
2022-08-28T03:28:40.751Z,14.01
2022-08-28T03:31:12.428Z,13.97
2022-08-28T03:33:42.717Z,13.96
2022-08-28T03:36:13.611Z,13.95
2022-08-28T03:38:41.980Z,13.95
2022-08-28T03:41:17.120Z,13.94
2022-08-28T03:43:45.425Z,13.91
2022-08-28T03:46:20.663Z,13.89
2022-08-28T03:48:48.137Z,13.88
2022-08-28T03:51:27.971Z,13.87
2022-08-28T03:53:59.733Z,13.87
2022-08-28T03:56:30.493Z,13.86
2022-08-28T03:59:02.274Z,13.89
2022-08-28T04:01:29.822Z,13.87
2022-08-28T04:03:57.363Z,13.89
2022-08-28T04:06:25.409Z,13.94
2022-08-28T04:08:52.844Z,13.98
2022-08-28T04:11:20.593Z,14.00
2022-08-28T04:13:48.151Z,14.03
2022-08-28T04:16:19.159Z,14.06
2022-08-28T04:18:49.909Z,14.09
2022-08-28T04:21:23.793Z,14.12
2022-08-28T04:23:51.725Z,14.14
2022-08-28T04:26:23.096Z,14.17
2022-08-28T04:28:52.620Z,14.18
2022-08-28T04:31:31.852Z,14.19
2022-08-28T04:34:06.858Z,14.21
2022-08-28T04:36:35.881Z,14.20
2022-08-28T04:39:08.551Z,14.21
2022-08-28T04:41:38.684Z,14.20
2022-08-28T04:44:07.856Z,14.21
2022-08-28T04:46:37.241Z,14.22
2022-08-28T04:49:05.795Z,14.24
2022-08-28T04:51:33.730Z,14.26
2022-08-28T04:54:03.458Z,14.29
2022-08-28T04:56:31.031Z,14.30
2022-08-28T04:59:01.520Z,14.33
2022-08-28T05:01:29.150Z,14.33
2022-08-28T05:04:02.173Z,14.34
2022-08-28T05:06:33.032Z,14.33
2022-08-28T05:09:03.722Z,14.32
2022-08-28T05:11:34.452Z,14.33
2022-08-28T05:14:09.625Z,14.34
2022-08-28T05:16:52.763Z,14.36
2022-08-28T05:19:21.191Z,14.35
2022-08-28T05:21:48.794Z,14.37
2022-08-28T05:24:18.818Z,14.39
2022-08-28T05:26:47.955Z,14.38
2022-08-28T05:29:17.003Z,14.38
2022-08-28T05:31:46.427Z,14.41
2022-08-28T05:34:15.246Z,14.41
2022-08-28T05:36:42.773Z,14.43
2022-08-28T05:39:11.812Z,14.45
2022-08-28T05:41:44.980Z,14.47
2022-08-28T05:44:16.576Z,14.46
2022-08-28T05:46:48.059Z,14.42
2022-08-28T05:49:18.991Z,14.41
2022-08-28T05:51:47.895Z,14.42
2022-08-28T05:54:16.777Z,14.44
2022-08-28T05:56:46.265Z,14.45
2022-08-28T05:59:15.959Z,14.47
2022-08-28T06:01:49.078Z,14.52
2022-08-28T06:04:24.557Z,14.54
2022-08-28T06:06:52.160Z,14.57
2022-08-28T06:09:29.598Z,14.61
2022-08-28T06:12:01.920Z,14.64
2022-08-28T06:14:31.273Z,14.68
2022-08-28T06:17:04.017Z,14.73
2022-08-28T06:19:37.233Z,14.78
2022-08-28T06:22:07.788Z,14.85
2022-08-28T06:24:36.306Z,14.93
2022-08-28T06:27:04.739Z,15.02
2022-08-28T06:29:32.257Z,15.10
2022-08-28T06:32:04.747Z,15.17
2022-08-28T06:34:32.498Z,15.24
2022-08-28T06:37:00.597Z,15.32
2022-08-28T06:39:28.049Z,15.43
2022-08-28T06:41:55.520Z,15.56
2022-08-28T06:44:23.029Z,15.72
2022-08-28T06:46:54.344Z,15.88
2022-08-28T06:49:22.618Z,16.05
2022-08-28T06:51:50.705Z,16.23
2022-08-28T06:54:22.992Z,16.41
2022-08-28T06:56:52.790Z,16.61
2022-08-28T06:59:20.288Z,16.80
2022-08-28T07:01:48.277Z,16.98
2022-08-28T07:04:15.907Z,17.19
2022-08-28T07:06:53.752Z,17.38
2022-08-28T07:09:24.246Z,17.58
2022-08-28T07:11:52.676Z,17.77
2022-08-28T07:14:20.264Z,17.95
2022-08-28T07:16:47.858Z,18.06
2022-08-28T07:19:15.741Z,18.20
2022-08-28T07:21:45.669Z,18.37
2022-08-28T07:24:16.028Z,18.51
2022-08-28T07:26:45.841Z,18.68
2022-08-28T07:29:14.349Z,18.87
2022-08-28T07:31:48.590Z,19.01
2022-08-28T07:34:21.026Z,19.07
2022-08-28T07:36:51.883Z,19.12
2022-08-28T07:39:19.805Z,19.19
2022-08-28T07:41:47.952Z,19.26
2022-08-28T07:44:36.431Z,19.32
2022-08-28T07:47:06.494Z,19.40
2022-08-28T07:49:36.360Z,19.45
2022-08-28T07:52:06.645Z,19.48
2022-08-28T07:54:36.013Z,19.41
2022-08-28T07:57:05.565Z,19.46
2022-08-28T07:59:36.822Z,19.42
2022-08-28T08:02:05.998Z,19.28
2022-08-28T08:04:33.887Z,19.18
2022-08-28T08:07:03.372Z,19.20
2022-08-28T08:09:30.973Z,19.20
2022-08-28T08:12:00.003Z,19.36
2022-08-28T08:14:28.198Z,19.52
2022-08-28T08:16:55.589Z,19.72
2022-08-28T08:19:23.163Z,19.98
2022-08-28T08:21:54.594Z,20.21
2022-08-28T08:24:28.359Z,20.46
2022-08-28T08:27:00.908Z,20.64
2022-08-28T08:29:36.978Z,20.61
2022-08-28T08:32:10.662Z,20.61
2022-08-28T08:34:42.649Z,20.56
2022-08-28T08:37:11.651Z,20.58
2022-08-28T08:39:42.072Z,20.50
2022-08-28T08:42:25.427Z,20.29
2022-08-28T08:44:56.355Z,20.01
2022-08-28T08:47:51.338Z,19.84
2022-08-28T08:50:25.673Z,19.83
2022-08-28T08:53:21.393Z,19.90
2022-08-28T08:55:53.342Z,19.90
2022-08-28T08:58:45.487Z,19.95
2022-08-28T09:01:28.886Z,20.01
2022-08-28T09:04:16.518Z,20.01
2022-08-28T09:07:19.796Z,20.07
2022-08-28T09:09:57.307Z,20.41
2022-08-28T09:12:34.805Z,20.64
2022-08-28T09:15:17.434Z,20.79
2022-08-28T09:17:53.537Z,20.92
2022-08-28T09:20:32.875Z,20.99
2022-08-28T09:23:02.136Z,20.84
2022-08-28T09:25:51.719Z,20.83
2022-08-28T09:28:40.753Z,20.96
2022-08-28T09:31:31.913Z,21.14
2022-08-28T09:34:31.836Z,21.14
2022-08-28T09:37:02.418Z,21.27
2022-08-28T09:39:33.811Z,21.55
2022-08-28T09:42:41.320Z,21.79
2022-08-28T09:45:24.178Z,22.03
2022-08-28T09:47:56.056Z,22.15
2022-08-28T09:50:37.110Z,22.26
2022-08-28T09:53:10.481Z,22.34
2022-08-28T09:55:56.005Z,22.43
2022-08-28T09:58:35.483Z,22.55
2022-08-28T10:01:19.089Z,22.61
2022-08-28T10:04:17.546Z,22.65
2022-08-28T10:07:09.239Z,22.68
2022-08-28T10:09:40.131Z,22.67
2022-08-28T10:12:50.423Z,22.75
2022-08-28T10:15:59.535Z,22.94
2022-08-28T10:18:48.277Z,23.17
2022-08-28T10:21:26.770Z,23.28
2022-08-28T10:24:29.222Z,23.17
2022-08-28T10:27:43.301Z,22.88
2022-08-28T10:30:19.346Z,22.59
2022-08-28T10:33:25.882Z,22.37
2022-08-28T10:36:33.998Z,22.19
2022-08-28T10:39:45.701Z,21.99
2022-08-28T10:42:30.198Z,21.81
2022-08-28T10:45:14.373Z,21.65
2022-08-28T10:47:50.902Z,21.62
2022-08-28T10:50:41.218Z,21.75
2022-08-28T10:53:23.191Z,21.99
2022-08-28T10:56:02.966Z,22.19
2022-08-28T10:58:37.044Z,22.19
2022-08-28T11:01:28.555Z,22.25
2022-08-28T11:04:01.001Z,22.40
2022-08-28T11:06:31.795Z,22.60
2022-08-28T11:09:24.789Z,22.82
2022-08-28T11:12:10.210Z,23.06
2022-08-28T11:14:48.497Z,23.29
2022-08-28T11:17:22.159Z,23.49
2022-08-28T11:20:25.028Z,23.64
2022-08-28T11:23:10.444Z,23.53
2022-08-28T11:25:54.725Z,23.56
2022-08-28T11:28:24.787Z,23.50
2022-08-28T11:31:05.441Z,23.46
2022-08-28T11:33:50.510Z,23.35
2022-08-28T11:36:40.718Z,23.22
2022-08-28T11:39:14.113Z,23.34
2022-08-28T11:42:36.221Z,23.54
2022-08-28T11:45:04.658Z,23.67
2022-08-28T11:47:43.629Z,23.83
2022-08-28T11:50:18.270Z,23.97
2022-08-28T11:53:24.960Z,24.12
2022-08-28T11:56:38.524Z,24.06
2022-08-28T11:59:45.199Z,24.11
2022-08-28T12:02:44.175Z,24.02
2022-08-28T12:05:14.575Z,23.87
2022-08-28T12:07:49.417Z,23.72
2022-08-28T12:10:22.922Z,23.73
2022-08-28T12:12:54.110Z,23.86
2022-08-28T12:15:27.586Z,24.09
2022-08-28T12:18:11.748Z,24.25
2022-08-28T12:21:01.283Z,24.23
2022-08-28T12:23:37.804Z,24.20
2022-08-28T12:26:13.249Z,24.07
2022-08-28T12:28:52.576Z,23.97
2022-08-28T12:31:47.500Z,24.02
2022-08-28T12:34:43.570Z,24.13
2022-08-28T12:37:51.856Z,24.22
2022-08-28T12:40:52.940Z,24.42
2022-08-28T12:43:46.290Z,24.68
2022-08-28T12:46:28.859Z,24.75
2022-08-28T12:49:03.177Z,24.68
2022-08-28T12:51:37.531Z,24.43
2022-08-28T12:54:08.728Z,24.30
2022-08-28T12:56:38.563Z,24.40
2022-08-28T12:59:37.822Z,24.62
2022-08-28T13:02:08.221Z,24.90
2022-08-28T13:05:09.543Z,25.07
2022-08-28T13:07:51.833Z,25.12
2022-08-28T13:10:29.766Z,24.98
2022-08-28T13:13:18.794Z,24.74
2022-08-28T13:16:00.716Z,24.50
2022-08-28T13:19:10.696Z,24.37
2022-08-28T13:22:00.383Z,24.34
2022-08-28T13:24:44.603Z,24.45
2022-08-28T13:27:12.091Z,24.54
2022-08-28T13:30:01.189Z,24.62
2022-08-28T13:32:33.165Z,24.83
2022-08-28T13:35:22.311Z,25.10
2022-08-28T13:37:54.255Z,25.34
2022-08-28T13:43:17.051Z,25.73
2022-08-28T13:45:48.659Z,25.59
2022-08-28T13:48:21.526Z,25.41
2022-08-28T13:51:11.994Z,25.12
2022-08-28T13:53:43.947Z,24.87
2022-08-28T13:56:12.259Z,24.77
2022-08-28T13:58:39.720Z,24.67
2022-08-28T14:01:07.393Z,24.55
2022-08-28T14:03:38.824Z,24.44
2022-08-28T14:06:14.735Z,24.35
2022-08-28T14:08:44.489Z,24.27
2022-08-28T14:11:15.167Z,24.21
2022-08-28T14:13:46.948Z,24.19
2022-08-28T14:16:25.916Z,24.34
2022-08-28T14:18:53.877Z,24.55
2022-08-28T14:21:24.626Z,24.80
2022-08-28T14:23:52.200Z,25.09
2022-08-28T14:26:26.465Z,25.38
2022-08-28T14:28:54.273Z,25.53
2022-08-28T14:31:25.543Z,25.48
2022-08-28T14:33:54.995Z,25.28
2022-08-28T14:36:27.810Z,25.12
2022-08-28T14:39:01.779Z,25.20
2022-08-28T14:41:34.622Z,25.35
2022-08-28T14:44:04.886Z,25.46
2022-08-28T14:46:37.676Z,25.52
2022-08-28T14:49:09.697Z,25.66
2022-08-28T14:51:41.473Z,25.83
2022-08-28T14:54:12.125Z,26.00
2022-08-28T14:56:43.124Z,26.03
2022-08-28T14:59:19.498Z,25.95
2022-08-28T15:01:50.403Z,25.72
2022-08-28T15:04:22.813Z,25.48
2022-08-28T15:06:58.607Z,25.21
2022-08-28T15:09:26.443Z,24.97
2022-08-28T15:11:55.103Z,24.79
2022-08-28T15:14:22.565Z,24.63
2022-08-28T15:16:50.145Z,24.64
2022-08-28T15:19:18.603Z,24.67
2022-08-28T15:21:53.855Z,24.85
2022-08-28T15:24:27.953Z,25.07
2022-08-28T15:26:56.864Z,25.27
2022-08-28T15:29:24.412Z,25.43
2022-08-28T15:31:52.862Z,25.57
2022-08-28T15:34:24.962Z,25.73
2022-08-28T15:36:55.741Z,25.82
2022-08-28T15:39:45.639Z,25.83
2022-08-28T15:42:14.610Z,25.70
2022-08-28T15:44:43.924Z,25.52
2022-08-28T15:47:13.758Z,25.27
2022-08-28T15:49:46.721Z,25.02
2022-08-28T15:52:18.858Z,24.77
2022-08-28T15:54:48.006Z,24.61
2022-08-28T15:57:16.035Z,24.60
2022-08-28T15:59:49.815Z,24.73
2022-08-28T16:02:21.905Z,24.81
2022-08-28T16:04:50.177Z,24.77
2022-08-28T16:07:20.750Z,24.82
2022-08-28T16:09:48.468Z,24.75
2022-08-28T16:12:16.821Z,24.61
2022-08-28T16:14:44.786Z,24.57
2022-08-28T16:17:12.522Z,24.66
2022-08-28T16:19:40.923Z,24.78
2022-08-28T16:22:11.045Z,24.97
2022-08-28T16:24:39.091Z,25.21
2022-08-28T16:27:09.525Z,25.38
2022-08-28T16:29:38.929Z,25.49
2022-08-28T16:32:07.012Z,25.65
2022-08-28T16:34:35.258Z,25.71
2022-08-28T16:37:04.643Z,25.79
2022-08-28T16:39:32.198Z,25.89
2022-08-28T16:41:59.744Z,26.05
2022-08-28T16:44:27.373Z,26.22
2022-08-28T16:46:55.955Z,26.29
2022-08-28T16:49:24.734Z,26.37
2022-08-28T16:51:52.531Z,26.33
2022-08-28T16:54:21.711Z,26.27
2022-08-28T16:56:49.311Z,26.32
2022-08-28T16:59:18.209Z,26.31
2022-08-28T17:01:47.342Z,26.10
2022-08-28T17:04:21.093Z,25.91
2022-08-28T17:06:48.924Z,25.78
2022-08-28T17:09:16.472Z,25.61
2022-08-28T17:11:45.564Z,25.50
2022-08-28T17:14:21.659Z,25.23
2022-08-28T17:16:50.589Z,25.00
2022-08-28T17:19:19.407Z,24.78
2022-08-28T17:22:05.285Z,24.62
2022-08-28T17:24:32.850Z,24.47
2022-08-28T17:27:05.251Z,24.27
2022-08-28T17:29:36.293Z,24.03
2022-08-28T17:32:05.731Z,23.81
2022-08-28T17:34:33.553Z,23.67
2022-08-28T17:37:01.485Z,23.53
2022-08-28T17:39:29.657Z,23.43
2022-08-28T17:41:57.614Z,23.31
2022-08-28T17:44:25.549Z,23.16
2022-08-28T17:46:54.055Z,23.09
2022-08-28T17:49:22.501Z,22.99
2022-08-28T17:51:51.100Z,22.84
2022-08-28T17:54:24.043Z,22.67
2022-08-28T17:56:54.344Z,22.53
2022-08-28T17:59:24.409Z,22.38
2022-08-28T18:01:53.403Z,22.23
2022-08-28T18:04:24.389Z,22.07
2022-08-28T18:06:54.484Z,21.88
2022-08-28T18:09:24.179Z,21.70
2022-08-28T18:11:52.657Z,21.54
2022-08-28T18:14:20.893Z,21.40
2022-08-28T18:16:48.481Z,21.26
2022-08-28T18:19:16.492Z,21.10
2022-08-28T18:21:44.905Z,20.94
2022-08-28T18:24:13.135Z,20.83
2022-08-28T18:26:42.996Z,20.72
2022-08-28T18:29:11.815Z,20.60
2022-08-28T18:31:40.885Z,20.52
2022-08-28T18:34:09.871Z,20.41
2022-08-28T18:36:39.890Z,20.28
2022-08-28T18:39:08.224Z,20.19
2022-08-28T18:41:43.957Z,20.07
2022-08-28T18:44:15.257Z,19.97
2022-08-28T18:46:44.088Z,19.85
2022-08-28T18:49:12.616Z,19.76
2022-08-28T18:51:43.402Z,19.66
2022-08-28T18:54:14.525Z,19.56
2022-08-28T18:56:46.025Z,19.47
2022-08-28T18:59:15.915Z,19.39
2022-08-28T19:01:43.585Z,19.32
2022-08-28T19:04:11.152Z,19.24
2022-08-28T19:06:41.373Z,19.18
2022-08-28T19:09:09.011Z,19.09
2022-08-28T19:11:39.223Z,18.99
2022-08-28T19:14:08.432Z,18.89
2022-08-28T19:16:35.893Z,18.82
2022-08-28T19:19:04.560Z,18.73
2022-08-28T19:21:32.567Z,18.64
2022-08-28T19:24:00.367Z,18.57
2022-08-28T19:26:28.625Z,18.49
2022-08-28T19:28:57.015Z,18.41
2022-08-28T19:31:27.022Z,18.36
2022-08-28T19:33:55.441Z,18.30
2022-08-28T19:36:22.978Z,18.23
2022-08-28T19:38:50.712Z,18.18
2022-08-28T19:41:18.220Z,18.15
2022-08-28T19:43:45.661Z,18.10
2022-08-28T19:46:19.240Z,18.06
2022-08-28T19:48:50.740Z,18.02
2022-08-28T19:51:23.077Z,17.97
2022-08-28T19:53:57.833Z,17.89
2022-08-28T19:56:28.731Z,17.83
2022-08-28T19:58:59.103Z,17.79
2022-08-28T20:01:29.973Z,17.75
2022-08-28T20:03:59.178Z,17.71
2022-08-28T20:06:30.233Z,17.68
2022-08-28T20:08:57.955Z,17.62
2022-08-28T20:11:30.247Z,17.60
2022-08-28T20:14:05.837Z,17.56
2022-08-28T20:16:42.346Z,17.52
2022-08-28T20:19:12.445Z,17.48
2022-08-28T20:21:47.020Z,17.44
2022-08-28T20:24:18.469Z,17.41
2022-08-28T20:26:46.732Z,17.36
2022-08-28T20:29:15.578Z,17.32
2022-08-28T20:31:47.891Z,17.27
2022-08-28T20:34:18.575Z,17.21
2022-08-28T20:36:46.382Z,17.18
2022-08-28T20:39:15.444Z,17.18
2022-08-28T20:41:44.365Z,17.16
2022-08-28T20:44:16.157Z,17.13
2022-08-28T20:46:43.860Z,17.10
2022-08-28T20:49:17.001Z,17.08
2022-08-28T20:51:57.659Z,17.07
2022-08-28T20:54:36.912Z,17.04
2022-08-28T20:57:12.202Z,17.00
2022-08-28T20:59:42.511Z,16.93
2022-08-28T21:02:23.831Z,16.84
2022-08-28T21:04:52.502Z,16.76
2022-08-28T21:07:23.298Z,16.73
2022-08-28T21:10:05.396Z,16.71
2022-08-28T21:12:39.953Z,16.67
2022-08-28T21:15:12.497Z,16.65
2022-08-28T21:17:40.979Z,16.61
2022-08-28T21:20:13.767Z,16.59
2022-08-28T21:22:42.242Z,16.53
2022-08-28T21:25:11.359Z,16.50
2022-08-28T21:27:39.334Z,16.47
2022-08-28T21:30:09.605Z,16.42
2022-08-28T21:32:37.510Z,16.38
2022-08-28T21:35:10.915Z,16.35
2022-08-28T21:37:41.334Z,16.31
2022-08-28T21:40:15.428Z,16.27
2022-08-28T21:42:43.748Z,16.22
2022-08-28T21:45:12.563Z,16.18
2022-08-28T21:47:42.175Z,16.18
2022-08-28T21:50:11.472Z,16.15
2022-08-28T21:52:40.547Z,16.09
2022-08-28T21:55:13.370Z,16.07
2022-08-28T21:57:41.356Z,16.04
2022-08-28T22:00:15.807Z,16.02
2022-08-28T22:02:44.075Z,16.00
2022-08-28T22:05:11.777Z,15.97
2022-08-28T22:07:40.343Z,15.95
2022-08-28T22:10:09.411Z,15.92
2022-08-28T22:12:36.946Z,15.91
2022-08-28T22:15:05.344Z,15.87
2022-08-28T22:17:32.798Z,15.87
2022-08-28T22:20:00.267Z,15.88
2022-08-28T22:22:46.411Z,15.86
2022-08-28T22:25:14.363Z,15.80
2022-08-28T22:27:41.775Z,15.76
2022-08-28T22:30:10.063Z,15.72
2022-08-28T22:32:37.485Z,15.67
2022-08-28T22:35:05.864Z,15.65
2022-08-28T22:37:35.789Z,15.62
2022-08-28T22:40:09.369Z,15.60
2022-08-28T22:42:42.519Z,15.55
2022-08-28T22:45:10.736Z,15.52
2022-08-28T22:47:38.486Z,15.48
2022-08-28T22:50:07.484Z,15.45
2022-08-28T22:52:35.157Z,15.42
2022-08-28T22:55:03.705Z,15.40
2022-08-28T22:57:34.091Z,15.32
2022-08-28T23:00:03.666Z,15.29
2022-08-28T23:02:31.251Z,15.26
2022-08-28T23:04:58.815Z,15.21
2022-08-28T23:07:26.318Z,15.17
2022-08-28T23:09:53.780Z,15.15
2022-08-28T23:12:21.258Z,15.11
2022-08-28T23:14:48.975Z,15.08
2022-08-28T23:17:18.719Z,15.03
2022-08-28T23:19:48.060Z,15.01
2022-08-28T23:22:16.113Z,14.99
2022-08-28T23:24:46.163Z,14.95
2022-08-28T23:27:34.865Z,14.90
2022-08-28T23:30:01.087Z,14.84
2022-08-28T23:32:28.608Z,14.81
2022-08-28T23:34:56.000Z,14.79
2022-08-28T23:37:23.490Z,14.77
2022-08-28T23:39:50.913Z,14.75
2022-08-28T23:42:18.456Z,14.71
2022-08-28T23:44:47.254Z,14.69
2022-08-28T23:47:14.976Z,14.66
2022-08-28T23:49:43.046Z,14.63
2022-08-28T23:52:10.540Z,14.60
2022-08-28T23:54:39.883Z,14.59
2022-08-28T23:57:09.022Z,14.58
2022-08-28T23:59:39.577Z,14.56
